sensor_id;sensor_type;location;lat;lon;timestamp;temperature;humidity
22986;DHT22;11659;51.092;7.080;2022-07-22T00:02:24;16.80;99.90
22986;DHT22;11659;51.092;7.080;2022-07-22T00:04:50;16.80;99.90
22986;DHT22;11659;51.092;7.080;2022-07-22T00:07:16;16.80;99.90
22986;DHT22;11659;51.092;7.080;2022-07-22T00:09:42;16.70;99.90
22986;DHT22;11659;51.092;7.080;2022-07-22T00:12:10;16.80;99.90
22986;DHT22;11659;51.092;7.080;2022-07-22T00:14:37;16.80;99.90
22986;DHT22;11659;51.092;7.080;2022-07-22T00:17:03;16.70;99.90
22986;DHT22;11659;51.092;7.080;2022-07-22T00:19:30;16.70;99.90
22986;DHT22;11659;51.092;7.080;2022-07-22T00:21:56;16.70;99.90
22986;DHT22;11659;51.092;7.080;2022-07-22T00:24:22;16.70;99.90
22986;DHT22;11659;51.092;7.080;2022-07-22T00:26:48;16.70;99.90
22986;DHT22;11659;51.092;7.080;2022-07-22T00:29:16;16.70;99.90
22986;DHT22;11659;51.092;7.080;2022-07-22T00:31:42;16.70;99.90
22986;DHT22;11659;51.092;7.080;2022-07-22T00:34:08;16.60;99.90
22986;DHT22;11659;51.092;7.080;2022-07-22T00:36:33;16.60;99.90
22986;DHT22;11659;51.092;7.080;2022-07-22T00:39:03;16.60;99.90
22986;DHT22;11659;51.092;7.080;2022-07-22T00:41:29;16.60;99.90
22986;DHT22;11659;51.092;7.080;2022-07-22T00:43:58;16.60;99.90
22986;DHT22;11659;51.092;7.080;2022-07-22T00:46:26;16.60;99.90
22986;DHT22;11659;51.092;7.080;2022-07-22T00:48:53;16.60;99.90
22986;DHT22;11659;51.092;7.080;2022-07-22T00:51:21;16.60;99.90
22986;DHT22;11659;51.092;7.080;2022-07-22T00:53:47;16.60;99.90
22986;DHT22;11659;51.092;7.080;2022-07-22T00:56:14;16.60;99.90
22986;DHT22;11659;51.092;7.080;2022-07-22T00:58:41;16.60;99.90
22986;DHT22;11659;51.092;7.080;2022-07-22T01:01:10;16.60;99.90
22986;DHT22;11659;51.092;7.080;2022-07-22T01:03:37;16.60;99.90
22986;DHT22;11659;51.092;7.080;2022-07-22T01:06:04;16.50;99.90
22986;DHT22;11659;51.092;7.080;2022-07-22T01:08:32;16.60;99.90
22986;DHT22;11659;51.092;7.080;2022-07-22T01:11:06;16.50;99.90
22986;DHT22;11659;51.092;7.080;2022-07-22T01:13:32;16.60;99.90
22986;DHT22;11659;51.092;7.080;2022-07-22T01:15:58;16.60;99.90
22986;DHT22;11659;51.092;7.080;2022-07-22T01:18:24;16.60;99.90
22986;DHT22;11659;51.092;7.080;2022-07-22T01:20:51;16.60;99.90
22986;DHT22;11659;51.092;7.080;2022-07-22T01:23:17;16.60;99.90
22986;DHT22;11659;51.092;7.080;2022-07-22T01:25:43;16.50;99.90
22986;DHT22;11659;51.092;7.080;2022-07-22T01:28:09;16.60;99.90
22986;DHT22;11659;51.092;7.080;2022-07-22T01:30:35;16.50;99.90
22986;DHT22;11659;51.092;7.080;2022-07-22T01:33:01;16.50;99.90
22986;DHT22;11659;51.092;7.080;2022-07-22T01:35:27;16.40;99.90
22986;DHT22;11659;51.092;7.080;2022-07-22T01:37:54;16.40;99.90
22986;DHT22;11659;51.092;7.080;2022-07-22T01:40:21;16.40;99.90
22986;DHT22;11659;51.092;7.080;2022-07-22T01:42:47;16.30;99.90
22986;DHT22;11659;51.092;7.080;2022-07-22T01:45:13;16.30;99.90
22986;DHT22;11659;51.092;7.080;2022-07-22T01:47:39;16.20;99.90
22986;DHT22;11659;51.092;7.080;2022-07-22T01:50:07;16.20;99.90
22986;DHT22;11659;51.092;7.080;2022-07-22T01:52:34;16.20;99.90
22986;DHT22;11659;51.092;7.080;2022-07-22T01:55:01;16.20;99.90
22986;DHT22;11659;51.092;7.080;2022-07-22T01:57:28;16.20;99.90
22986;DHT22;11659;51.092;7.080;2022-07-22T01:59:54;16.20;99.90
22986;DHT22;11659;51.092;7.080;2022-07-22T02:02:21;16.20;99.90
22986;DHT22;11659;51.092;7.080;2022-07-22T02:04:47;16.20;99.90
22986;DHT22;11659;51.092;7.080;2022-07-22T02:07:13;16.20;99.90
22986;DHT22;11659;51.092;7.080;2022-07-22T02:09:39;16.20;99.90
22986;DHT22;11659;51.092;7.080;2022-07-22T02:12:08;16.10;99.90
22986;DHT22;11659;51.092;7.080;2022-07-22T02:14:40;16.10;99.90
22986;DHT22;11659;51.092;7.080;2022-07-22T02:17:07;16.10;99.90
22986;DHT22;11659;51.092;7.080;2022-07-22T02:19:33;16.10;99.90
22986;DHT22;11659;51.092;7.080;2022-07-22T02:21:59;16.10;99.90
22986;DHT22;11659;51.092;7.080;2022-07-22T02:24:25;16.10;99.90
22986;DHT22;11659;51.092;7.080;2022-07-22T02:26:51;16.10;99.90
22986;DHT22;11659;51.092;7.080;2022-07-22T02:29:18;16.00;99.90
22986;DHT22;11659;51.092;7.080;2022-07-22T02:31:44;16.00;99.90
22986;DHT22;11659;51.092;7.080;2022-07-22T02:34:10;16.00;99.90
22986;DHT22;11659;51.092;7.080;2022-07-22T02:36:36;16.00;99.90
22986;DHT22;11659;51.092;7.080;2022-07-22T02:39:03;16.00;99.90
22986;DHT22;11659;51.092;7.080;2022-07-22T02:41:30;16.00;99.90
22986;DHT22;11659;51.092;7.080;2022-07-22T02:43:57;16.00;99.90
22986;DHT22;11659;51.092;7.080;2022-07-22T02:46:25;16.00;99.90
22986;DHT22;11659;51.092;7.080;2022-07-22T02:48:51;16.00;99.90
22986;DHT22;11659;51.092;7.080;2022-07-22T02:51:19;16.00;99.90
22986;DHT22;11659;51.092;7.080;2022-07-22T02:53:46;16.00;99.90
22986;DHT22;11659;51.092;7.080;2022-07-22T02:56:11;16.00;99.90
22986;DHT22;11659;51.092;7.080;2022-07-22T02:58:38;16.00;99.90
22986;DHT22;11659;51.092;7.080;2022-07-22T03:01:04;16.00;99.90
22986;DHT22;11659;51.092;7.080;2022-07-22T03:03:39;16.00;99.90
22986;DHT22;11659;51.092;7.080;2022-07-22T03:06:05;16.00;99.90
22986;DHT22;11659;51.092;7.080;2022-07-22T03:08:40;16.00;99.90
22986;DHT22;11659;51.092;7.080;2022-07-22T03:11:06;16.00;99.90
22986;DHT22;11659;51.092;7.080;2022-07-22T03:13:32;16.00;99.90
22986;DHT22;11659;51.092;7.080;2022-07-22T03:15:58;16.00;99.90
22986;DHT22;11659;51.092;7.080;2022-07-22T03:18:24;16.00;99.90
22986;DHT22;11659;51.092;7.080;2022-07-22T03:20:51;16.00;99.90
22986;DHT22;11659;51.092;7.080;2022-07-22T03:23:18;16.00;99.90
22986;DHT22;11659;51.092;7.080;2022-07-22T03:25:44;16.00;99.90
22986;DHT22;11659;51.092;7.080;2022-07-22T03:28:10;16.00;99.90
22986;DHT22;11659;51.092;7.080;2022-07-22T03:30:36;16.00;99.90
22986;DHT22;11659;51.092;7.080;2022-07-22T03:33:03;16.00;99.90
22986;DHT22;11659;51.092;7.080;2022-07-22T03:35:31;16.00;99.90
22986;DHT22;11659;51.092;7.080;2022-07-22T03:37:59;16.00;99.90
22986;DHT22;11659;51.092;7.080;2022-07-22T03:40:27;16.00;99.90
22986;DHT22;11659;51.092;7.080;2022-07-22T03:42:54;16.00;99.90
22986;DHT22;11659;51.092;7.080;2022-07-22T03:45:20;16.00;99.90
22986;DHT22;11659;51.092;7.080;2022-07-22T03:47:46;16.00;99.90
22986;DHT22;11659;51.092;7.080;2022-07-22T03:50:13;16.00;99.90
22986;DHT22;11659;51.092;7.080;2022-07-22T03:52:39;16.00;99.90
22986;DHT22;11659;51.092;7.080;2022-07-22T03:55:10;16.00;99.90
22986;DHT22;11659;51.092;7.080;2022-07-22T03:57:35;16.00;99.90
22986;DHT22;11659;51.092;7.080;2022-07-22T04:00:08;16.00;99.90
22986;DHT22;11659;51.092;7.080;2022-07-22T04:02:40;16.00;99.90
22986;DHT22;11659;51.092;7.080;2022-07-22T04:05:08;16.00;99.90
22986;DHT22;11659;51.092;7.080;2022-07-22T04:07:34;16.10;99.90
22986;DHT22;11659;51.092;7.080;2022-07-22T04:10:00;16.10;99.90
22986;DHT22;11659;51.092;7.080;2022-07-22T04:12:39;16.10;99.90
22986;DHT22;11659;51.092;7.080;2022-07-22T04:15:25;16.10;99.90
22986;DHT22;11659;51.092;7.080;2022-07-22T04:17:51;16.10;99.90
22986;DHT22;11659;51.092;7.080;2022-07-22T04:20:17;16.10;99.90
22986;DHT22;11659;51.092;7.080;2022-07-22T04:23:06;16.10;99.90
22986;DHT22;11659;51.092;7.080;2022-07-22T04:25:32;16.10;99.90
22986;DHT22;11659;51.092;7.080;2022-07-22T04:27:59;16.10;99.90
22986;DHT22;11659;51.092;7.080;2022-07-22T04:30:26;16.10;99.90
22986;DHT22;11659;51.092;7.080;2022-07-22T04:32:52;16.20;99.90
22986;DHT22;11659;51.092;7.080;2022-07-22T04:35:18;16.20;99.90
22986;DHT22;11659;51.092;7.080;2022-07-22T04:37:55;16.20;99.90
22986;DHT22;11659;51.092;7.080;2022-07-22T04:40:22;16.20;99.90
22986;DHT22;11659;51.092;7.080;2022-07-22T04:42:48;16.20;99.90
22986;DHT22;11659;51.092;7.080;2022-07-22T04:45:16;16.20;99.90
22986;DHT22;11659;51.092;7.080;2022-07-22T04:47:42;16.20;99.90
22986;DHT22;11659;51.092;7.080;2022-07-22T04:50:08;16.20;99.90
22986;DHT22;11659;51.092;7.080;2022-07-22T04:52:36;16.20;99.90
22986;DHT22;11659;51.092;7.080;2022-07-22T04:55:02;16.20;99.90
22986;DHT22;11659;51.092;7.080;2022-07-22T04:57:28;16.20;99.90
22986;DHT22;11659;51.092;7.080;2022-07-22T04:59:57;16.20;99.90
22986;DHT22;11659;51.092;7.080;2022-07-22T05:02:25;16.20;99.90
22986;DHT22;11659;51.092;7.080;2022-07-22T05:04:51;16.30;99.90
22986;DHT22;11659;51.092;7.080;2022-07-22T05:07:17;16.30;99.90
22986;DHT22;11659;51.092;7.080;2022-07-22T05:09:43;16.30;99.90
22986;DHT22;11659;51.092;7.080;2022-07-22T05:12:11;16.30;99.90
22986;DHT22;11659;51.092;7.080;2022-07-22T05:14:38;16.30;99.90
22986;DHT22;11659;51.092;7.080;2022-07-22T05:17:09;16.30;99.90
22986;DHT22;11659;51.092;7.080;2022-07-22T05:19:39;16.30;99.90
22986;DHT22;11659;51.092;7.080;2022-07-22T05:22:07;16.30;99.90
22986;DHT22;11659;51.092;7.080;2022-07-22T05:24:33;16.20;99.90
22986;DHT22;11659;51.092;7.080;2022-07-22T05:26:59;16.30;99.90
22986;DHT22;11659;51.092;7.080;2022-07-22T05:29:25;16.30;99.90
22986;DHT22;11659;51.092;7.080;2022-07-22T05:31:51;16.30;99.90
22986;DHT22;11659;51.092;7.080;2022-07-22T05:34:17;16.30;99.90
22986;DHT22;11659;51.092;7.080;2022-07-22T05:36:51;16.30;99.90
22986;DHT22;11659;51.092;7.080;2022-07-22T05:39:17;16.30;99.90
22986;DHT22;11659;51.092;7.080;2022-07-22T05:41:44;16.30;99.90
22986;DHT22;11659;51.092;7.080;2022-07-22T05:44:10;16.30;99.90
22986;DHT22;11659;51.092;7.080;2022-07-22T05:46:36;16.30;99.90
22986;DHT22;11659;51.092;7.080;2022-07-22T05:49:03;16.30;99.90
22986;DHT22;11659;51.092;7.080;2022-07-22T05:51:36;16.20;99.90
22986;DHT22;11659;51.092;7.080;2022-07-22T05:54:04;16.20;99.90
22986;DHT22;11659;51.092;7.080;2022-07-22T05:56:30;16.20;99.90
22986;DHT22;11659;51.092;7.080;2022-07-22T05:58:56;16.10;99.90
22986;DHT22;11659;51.092;7.080;2022-07-22T06:01:22;16.10;99.90
22986;DHT22;11659;51.092;7.080;2022-07-22T06:03:48;16.10;99.90
22986;DHT22;11659;51.092;7.080;2022-07-22T06:06:15;16.10;99.90
22986;DHT22;11659;51.092;7.080;2022-07-22T06:08:42;16.10;99.90
22986;DHT22;11659;51.092;7.080;2022-07-22T06:11:11;16.10;99.90
22986;DHT22;11659;51.092;7.080;2022-07-22T06:13:37;16.10;99.90
22986;DHT22;11659;51.092;7.080;2022-07-22T06:16:04;16.10;99.90
22986;DHT22;11659;51.092;7.080;2022-07-22T06:18:31;16.10;99.90
22986;DHT22;11659;51.092;7.080;2022-07-22T06:20:57;16.20;99.90
22986;DHT22;11659;51.092;7.080;2022-07-22T06:23:23;16.20;99.90
22986;DHT22;11659;51.092;7.080;2022-07-22T06:25:50;16.20;99.90
22986;DHT22;11659;51.092;7.080;2022-07-22T06:28:31;16.20;99.90
22986;DHT22;11659;51.092;7.080;2022-07-22T06:30:57;16.30;99.90
22986;DHT22;11659;51.092;7.080;2022-07-22T06:33:24;16.30;99.90
22986;DHT22;11659;51.092;7.080;2022-07-22T06:35:50;16.30;99.90
22986;DHT22;11659;51.092;7.080;2022-07-22T06:38:17;16.40;99.90
22986;DHT22;11659;51.092;7.080;2022-07-22T06:41:20;16.40;99.90
22986;DHT22;11659;51.092;7.080;2022-07-22T06:44:08;16.40;99.90
22986;DHT22;11659;51.092;7.080;2022-07-22T06:46:43;16.50;99.90
22986;DHT22;11659;51.092;7.080;2022-07-22T06:49:09;16.50;99.90
22986;DHT22;11659;51.092;7.080;2022-07-22T06:51:35;16.60;99.90
22986;DHT22;11659;51.092;7.080;2022-07-22T06:54:01;16.60;99.90
22986;DHT22;11659;51.092;7.080;2022-07-22T06:56:28;16.70;99.90
22986;DHT22;11659;51.092;7.080;2022-07-22T06:58:53;16.70;99.90
22986;DHT22;11659;51.092;7.080;2022-07-22T07:01:22;16.80;99.90
22986;DHT22;11659;51.092;7.080;2022-07-22T07:03:53;16.80;99.90
22986;DHT22;11659;51.092;7.080;2022-07-22T07:06:19;16.80;99.90
22986;DHT22;11659;51.092;7.080;2022-07-22T07:09:08;16.90;99.90
22986;DHT22;11659;51.092;7.080;2022-07-22T07:11:35;16.90;99.90
22986;DHT22;11659;51.092;7.080;2022-07-22T07:14:05;17.00;99.90
22986;DHT22;11659;51.092;7.080;2022-07-22T07:16:33;17.00;99.90
22986;DHT22;11659;51.092;7.080;2022-07-22T07:18:59;17.00;99.90
22986;DHT22;11659;51.092;7.080;2022-07-22T07:21:26;17.10;99.90
22986;DHT22;11659;51.092;7.080;2022-07-22T07:23:52;17.10;99.90
22986;DHT22;11659;51.092;7.080;2022-07-22T07:26:19;17.10;99.90
22986;DHT22;11659;51.092;7.080;2022-07-22T07:28:45;17.10;99.90
22986;DHT22;11659;51.092;7.080;2022-07-22T07:31:17;17.10;99.90
22986;DHT22;11659;51.092;7.080;2022-07-22T07:33:45;17.20;99.90
22986;DHT22;11659;51.092;7.080;2022-07-22T07:36:11;17.20;99.90
22986;DHT22;11659;51.092;7.080;2022-07-22T07:38:42;17.20;99.90
22986;DHT22;11659;51.092;7.080;2022-07-22T07:41:12;17.20;99.90
22986;DHT22;11659;51.092;7.080;2022-07-22T07:43:40;17.20;99.90
22986;DHT22;11659;51.092;7.080;2022-07-22T07:46:06;17.30;99.90
22986;DHT22;11659;51.092;7.080;2022-07-22T07:48:32;17.30;99.90
22986;DHT22;11659;51.092;7.080;2022-07-22T07:51:00;17.30;99.90
22986;DHT22;11659;51.092;7.080;2022-07-22T07:53:26;17.40;99.90
22986;DHT22;11659;51.092;7.080;2022-07-22T07:55:53;17.40;99.90
22986;DHT22;11659;51.092;7.080;2022-07-22T07:58:19;17.50;99.90
22986;DHT22;11659;51.092;7.080;2022-07-22T08:00:45;17.50;99.90
22986;DHT22;11659;51.092;7.080;2022-07-22T08:03:12;17.60;99.90
22986;DHT22;11659;51.092;7.080;2022-07-22T08:05:38;17.60;99.90
22986;DHT22;11659;51.092;7.080;2022-07-22T08:08:08;17.60;99.90
22986;DHT22;11659;51.092;7.080;2022-07-22T08:10:34;17.60;99.90
22986;DHT22;11659;51.092;7.080;2022-07-22T08:13:15;17.70;99.90
22986;DHT22;11659;51.092;7.080;2022-07-22T08:15:47;17.70;99.90
22986;DHT22;11659;51.092;7.080;2022-07-22T08:18:32;17.80;99.90
22986;DHT22;11659;51.092;7.080;2022-07-22T08:20:59;17.80;99.90
22986;DHT22;11659;51.092;7.080;2022-07-22T08:23:37;17.80;99.90
22986;DHT22;11659;51.092;7.080;2022-07-22T08:26:03;17.90;99.90
22986;DHT22;11659;51.092;7.080;2022-07-22T08:28:29;17.90;99.90
22986;DHT22;11659;51.092;7.080;2022-07-22T08:30:55;18.00;99.90
22986;DHT22;11659;51.092;7.080;2022-07-22T08:33:21;18.00;99.90
22986;DHT22;11659;51.092;7.080;2022-07-22T08:35:47;18.00;99.90
22986;DHT22;11659;51.092;7.080;2022-07-22T08:38:13;18.00;99.90
22986;DHT22;11659;51.092;7.080;2022-07-22T08:40:41;18.10;99.90
22986;DHT22;11659;51.092;7.080;2022-07-22T08:43:07;18.10;99.90
22986;DHT22;11659;51.092;7.080;2022-07-22T08:45:34;18.20;99.90
22986;DHT22;11659;51.092;7.080;2022-07-22T08:48:00;18.20;99.90
22986;DHT22;11659;51.092;7.080;2022-07-22T08:50:41;18.30;99.90
22986;DHT22;11659;51.092;7.080;2022-07-22T08:53:12;18.30;99.90
22986;DHT22;11659;51.092;7.080;2022-07-22T08:55:43;18.30;99.90
22986;DHT22;11659;51.092;7.080;2022-07-22T08:58:09;18.30;99.90
22986;DHT22;11659;51.092;7.080;2022-07-22T09:00:35;18.30;99.90
22986;DHT22;11659;51.092;7.080;2022-07-22T09:03:16;18.30;99.90
22986;DHT22;11659;51.092;7.080;2022-07-22T09:05:42;18.30;99.90
22986;DHT22;11659;51.092;7.080;2022-07-22T09:08:09;18.30;99.90
22986;DHT22;11659;51.092;7.080;2022-07-22T09:10:52;18.30;99.90
22986;DHT22;11659;51.092;7.080;2022-07-22T09:13:45;18.30;99.90
22986;DHT22;11659;51.092;7.080;2022-07-22T09:16:41;18.30;99.90
22986;DHT22;11659;51.092;7.080;2022-07-22T09:19:31;18.30;99.90
22986;DHT22;11659;51.092;7.080;2022-07-22T09:22:30;18.30;99.90
22986;DHT22;11659;51.092;7.080;2022-07-22T09:25:26;18.30;99.90
22986;DHT22;11659;51.092;7.080;2022-07-22T09:28:15;18.40;99.90
22986;DHT22;11659;51.092;7.080;2022-07-22T09:31:00;18.40;99.90
22986;DHT22;11659;51.092;7.080;2022-07-22T09:33:31;18.40;99.90
22986;DHT22;11659;51.092;7.080;2022-07-22T09:36:16;18.40;99.90
22986;DHT22;11659;51.092;7.080;2022-07-22T09:38:42;18.40;99.90
22986;DHT22;11659;51.092;7.080;2022-07-22T09:41:09;18.40;99.90
22986;DHT22;11659;51.092;7.080;2022-07-22T09:43:36;18.40;99.90
22986;DHT22;11659;51.092;7.080;2022-07-22T09:46:03;18.40;99.90
22986;DHT22;11659;51.092;7.080;2022-07-22T09:48:50;18.40;99.90
22986;DHT22;11659;51.092;7.080;2022-07-22T09:51:35;18.40;99.90
22986;DHT22;11659;51.092;7.080;2022-07-22T09:54:23;18.40;99.90
22986;DHT22;11659;51.092;7.080;2022-07-22T09:56:50;18.40;99.90
22986;DHT22;11659;51.092;7.080;2022-07-22T09:59:19;18.40;99.90
22986;DHT22;11659;51.092;7.080;2022-07-22T10:01:55;18.30;99.90
22986;DHT22;11659;51.092;7.080;2022-07-22T10:04:24;18.40;99.90
22986;DHT22;11659;51.092;7.080;2022-07-22T10:06:51;18.40;99.90
22986;DHT22;11659;51.092;7.080;2022-07-22T10:09:23;18.40;99.90
22986;DHT22;11659;51.092;7.080;2022-07-22T10:11:50;18.50;99.90
22986;DHT22;11659;51.092;7.080;2022-07-22T10:14:18;18.50;99.90
22986;DHT22;11659;51.092;7.080;2022-07-22T10:16:46;18.50;99.90
22986;DHT22;11659;51.092;7.080;2022-07-22T10:19:13;18.50;99.90
22986;DHT22;11659;51.092;7.080;2022-07-22T10:21:40;18.50;99.90
22986;DHT22;11659;51.092;7.080;2022-07-22T10:24:09;18.60;99.90
22986;DHT22;11659;51.092;7.080;2022-07-22T10:26:46;18.60;99.90
22986;DHT22;11659;51.092;7.080;2022-07-22T10:29:29;18.60;99.90
22986;DHT22;11659;51.092;7.080;2022-07-22T10:32:21;18.60;99.90
22986;DHT22;11659;51.092;7.080;2022-07-22T10:35:19;18.70;99.90
22986;DHT22;11659;51.092;7.080;2022-07-22T10:37:48;18.80;99.90
22986;DHT22;11659;51.092;7.080;2022-07-22T10:40:16;18.80;99.90
22986;DHT22;11659;51.092;7.080;2022-07-22T10:43:10;18.90;99.90
22986;DHT22;11659;51.092;7.080;2022-07-22T10:45:40;19.00;99.90
22986;DHT22;11659;51.092;7.080;2022-07-22T10:48:08;19.10;99.90
22986;DHT22;11659;51.092;7.080;2022-07-22T10:50:43;19.20;99.90
22986;DHT22;11659;51.092;7.080;2022-07-22T10:53:11;19.40;99.90
22986;DHT22;11659;51.092;7.080;2022-07-22T10:55:38;19.60;99.90
22986;DHT22;11659;51.092;7.080;2022-07-22T11:01:06;19.80;99.90
22986;DHT22;11659;51.092;7.080;2022-07-22T11:03:34;19.80;99.90
22986;DHT22;11659;51.092;7.080;2022-07-22T11:06:13;19.90;99.90
22986;DHT22;11659;51.092;7.080;2022-07-22T11:08:39;19.90;99.90
22986;DHT22;11659;51.092;7.080;2022-07-22T11:11:06;19.90;99.90
22986;DHT22;11659;51.092;7.080;2022-07-22T11:13:32;19.90;99.90
22986;DHT22;11659;51.092;7.080;2022-07-22T11:18:53;19.90;99.90
22986;DHT22;11659;51.092;7.080;2022-07-22T11:21:21;20.00;99.90
22986;DHT22;11659;51.092;7.080;2022-07-22T11:23:50;20.20;99.90
22986;DHT22;11659;51.092;7.080;2022-07-22T11:26:17;20.40;99.90
22986;DHT22;11659;51.092;7.080;2022-07-22T11:28:44;20.60;99.90
22986;DHT22;11659;51.092;7.080;2022-07-22T11:31:15;20.80;99.90
22986;DHT22;11659;51.092;7.080;2022-07-22T11:33:41;20.90;99.90
22986;DHT22;11659;51.092;7.080;2022-07-22T11:36:09;21.00;99.90
22986;DHT22;11659;51.092;7.080;2022-07-22T11:38:43;21.00;99.90
22986;DHT22;11659;51.092;7.080;2022-07-22T11:41:10;21.10;99.90
22986;DHT22;11659;51.092;7.080;2022-07-22T11:43:41;21.10;99.90
22986;DHT22;11659;51.092;7.080;2022-07-22T11:46:08;21.20;99.90
22986;DHT22;11659;51.092;7.080;2022-07-22T11:48:34;21.40;99.90
22986;DHT22;11659;51.092;7.080;2022-07-22T11:51:01;21.60;99.90
22986;DHT22;11659;51.092;7.080;2022-07-22T11:53:28;21.70;99.90
22986;DHT22;11659;51.092;7.080;2022-07-22T11:55:57;21.70;99.90
22986;DHT22;11659;51.092;7.080;2022-07-22T11:58:38;21.70;99.90
22986;DHT22;11659;51.092;7.080;2022-07-22T12:01:05;21.60;99.90
22986;DHT22;11659;51.092;7.080;2022-07-22T12:03:33;21.40;99.90
22986;DHT22;11659;51.092;7.080;2022-07-22T12:06:00;21.40;99.90
22986;DHT22;11659;51.092;7.080;2022-07-22T12:08:28;21.50;99.90
22986;DHT22;11659;51.092;7.080;2022-07-22T12:10:55;21.60;99.90
22986;DHT22;11659;51.092;7.080;2022-07-22T12:13:22;21.60;99.90
22986;DHT22;11659;51.092;7.080;2022-07-22T12:15:52;21.70;99.90
22986;DHT22;11659;51.092;7.080;2022-07-22T12:18:20;21.90;99.90
22986;DHT22;11659;51.092;7.080;2022-07-22T12:20:48;22.20;99.90
22986;DHT22;11659;51.092;7.080;2022-07-22T12:23:15;22.50;99.90
22986;DHT22;11659;51.092;7.080;2022-07-22T12:25:57;22.70;99.90
22986;DHT22;11659;51.092;7.080;2022-07-22T12:28:24;23.00;99.90
22986;DHT22;11659;51.092;7.080;2022-07-22T12:30:52;23.20;99.90
22986;DHT22;11659;51.092;7.080;2022-07-22T12:33:20;23.30;99.90
22986;DHT22;11659;51.092;7.080;2022-07-22T12:35:59;23.20;99.90
22986;DHT22;11659;51.092;7.080;2022-07-22T12:38:25;23.20;99.90
22986;DHT22;11659;51.092;7.080;2022-07-22T12:40:51;23.30;99.90
22986;DHT22;11659;51.092;7.080;2022-07-22T12:43:24;23.30;99.90
22986;DHT22;11659;51.092;7.080;2022-07-22T12:45:50;23.40;99.90
22986;DHT22;11659;51.092;7.080;2022-07-22T12:48:16;23.40;99.90
22986;DHT22;11659;51.092;7.080;2022-07-22T12:50:53;23.30;99.90
22986;DHT22;11659;51.092;7.080;2022-07-22T12:53:19;23.20;99.90
22986;DHT22;11659;51.092;7.080;2022-07-22T12:55:47;23.10;99.90
22986;DHT22;11659;51.092;7.080;2022-07-22T12:58:14;23.00;99.90
22986;DHT22;11659;51.092;7.080;2022-07-22T13:00:44;23.00;99.90
22986;DHT22;11659;51.092;7.080;2022-07-22T13:03:10;23.00;99.90
22986;DHT22;11659;51.092;7.080;2022-07-22T13:05:36;23.00;99.90
22986;DHT22;11659;51.092;7.080;2022-07-22T13:08:03;23.00;99.90
22986;DHT22;11659;51.092;7.080;2022-07-22T13:10:30;22.90;99.90
22986;DHT22;11659;51.092;7.080;2022-07-22T13:12:56;22.80;99.90
22986;DHT22;11659;51.092;7.080;2022-07-22T13:15:22;22.80;99.90
22986;DHT22;11659;51.092;7.080;2022-07-22T13:17:50;22.80;99.90
22986;DHT22;11659;51.092;7.080;2022-07-22T13:20:17;22.90;99.90
22986;DHT22;11659;51.092;7.080;2022-07-22T13:22:44;22.90;99.90
22986;DHT22;11659;51.092;7.080;2022-07-22T13:25:10;22.80;99.90
22986;DHT22;11659;51.092;7.080;2022-07-22T13:27:36;22.80;99.90
22986;DHT22;11659;51.092;7.080;2022-07-22T13:30:02;22.80;99.90
22986;DHT22;11659;51.092;7.080;2022-07-22T13:32:28;22.70;99.90
22986;DHT22;11659;51.092;7.080;2022-07-22T13:34:55;22.70;99.90
22986;DHT22;11659;51.092;7.080;2022-07-22T13:37:22;22.70;99.90
22986;DHT22;11659;51.092;7.080;2022-07-22T13:39:48;22.70;99.90
22986;DHT22;11659;51.092;7.080;2022-07-22T13:42:15;22.70;99.90
22986;DHT22;11659;51.092;7.080;2022-07-22T13:44:45;22.70;99.90
22986;DHT22;11659;51.092;7.080;2022-07-22T13:47:11;22.70;99.90
22986;DHT22;11659;51.092;7.080;2022-07-22T13:49:37;22.80;99.90
22986;DHT22;11659;51.092;7.080;2022-07-22T13:52:05;22.90;99.90
22986;DHT22;11659;51.092;7.080;2022-07-22T13:54:31;22.90;99.90
22986;DHT22;11659;51.092;7.080;2022-07-22T13:56:58;22.90;99.90
22986;DHT22;11659;51.092;7.080;2022-07-22T13:59:24;22.80;99.90
22986;DHT22;11659;51.092;7.080;2022-07-22T14:01:50;22.90;99.90
22986;DHT22;11659;51.092;7.080;2022-07-22T14:04:16;22.90;99.90
22986;DHT22;11659;51.092;7.080;2022-07-22T14:06:42;22.80;99.90
22986;DHT22;11659;51.092;7.080;2022-07-22T14:09:10;22.80;99.90
22986;DHT22;11659;51.092;7.080;2022-07-22T14:11:36;22.80;99.90
22986;DHT22;11659;51.092;7.080;2022-07-22T14:14:01;22.80;99.90
22986;DHT22;11659;51.092;7.080;2022-07-22T14:16:27;22.80;99.90
22986;DHT22;11659;51.092;7.080;2022-07-22T14:19:00;22.90;99.90
22986;DHT22;11659;51.092;7.080;2022-07-22T14:21:26;23.00;99.90
22986;DHT22;11659;51.092;7.080;2022-07-22T14:23:52;23.00;99.90
22986;DHT22;11659;51.092;7.080;2022-07-22T14:26:19;23.00;99.90
22986;DHT22;11659;51.092;7.080;2022-07-22T14:28:45;23.00;99.90
22986;DHT22;11659;51.092;7.080;2022-07-22T14:31:11;23.00;99.90
22986;DHT22;11659;51.092;7.080;2022-07-22T14:33:37;23.10;99.90
22986;DHT22;11659;51.092;7.080;2022-07-22T14:36:03;23.10;99.90
22986;DHT22;11659;51.092;7.080;2022-07-22T14:38:30;23.20;99.90
22986;DHT22;11659;51.092;7.080;2022-07-22T14:40:56;23.20;99.90
22986;DHT22;11659;51.092;7.080;2022-07-22T14:43:23;23.20;99.90
22986;DHT22;11659;51.092;7.080;2022-07-22T14:45:49;23.30;99.90
22986;DHT22;11659;51.092;7.080;2022-07-22T14:48:15;23.30;99.90
22986;DHT22;11659;51.092;7.080;2022-07-22T14:50:41;23.30;99.90
22986;DHT22;11659;51.092;7.080;2022-07-22T14:53:07;23.30;99.90
22986;DHT22;11659;51.092;7.080;2022-07-22T14:55:33;23.30;99.90
22986;DHT22;11659;51.092;7.080;2022-07-22T14:57:59;23.30;99.90
22986;DHT22;11659;51.092;7.080;2022-07-22T15:00:27;23.20;99.90
22986;DHT22;11659;51.092;7.080;2022-07-22T15:02:53;23.10;99.90
22986;DHT22;11659;51.092;7.080;2022-07-22T15:05:18;23.00;99.90
22986;DHT22;11659;51.092;7.080;2022-07-22T15:07:44;23.00;99.90
22986;DHT22;11659;51.092;7.080;2022-07-22T15:10:10;23.00;99.90
22986;DHT22;11659;51.092;7.080;2022-07-22T15:12:37;23.00;99.90
22986;DHT22;11659;51.092;7.080;2022-07-22T15:15:03;22.90;99.90
22986;DHT22;11659;51.092;7.080;2022-07-22T15:17:35;23.00;99.90
22986;DHT22;11659;51.092;7.080;2022-07-22T15:20:02;23.00;99.90
22986;DHT22;11659;51.092;7.080;2022-07-22T15:22:28;23.00;99.90
22986;DHT22;11659;51.092;7.080;2022-07-22T15:24:54;23.00;99.90
22986;DHT22;11659;51.092;7.080;2022-07-22T15:27:20;23.10;99.90
22986;DHT22;11659;51.092;7.080;2022-07-22T15:29:46;23.10;99.90
22986;DHT22;11659;51.092;7.080;2022-07-22T15:32:13;23.10;99.90
22986;DHT22;11659;51.092;7.080;2022-07-22T15:34:41;23.20;99.90
22986;DHT22;11659;51.092;7.080;2022-07-22T15:37:07;23.10;99.90
22986;DHT22;11659;51.092;7.080;2022-07-22T15:39:33;23.20;99.90
22986;DHT22;11659;51.092;7.080;2022-07-22T15:41:59;23.20;99.90
22986;DHT22;11659;51.092;7.080;2022-07-22T15:44:25;23.10;99.90
22986;DHT22;11659;51.092;7.080;2022-07-22T15:46:51;23.20;99.90